Terminal Aerodrome Forecast
Issued by NWS

Home | Current Version | Previous Version | Graphics & Text | Print | Product List | Glossary On
Versions: 1 2 3 4 5 6 7 8 9 10 11 12 13 14 15 16 17 18 19
000
FTUS43 KGRB 221012 AAA
TAFRHI
TAF AMD
KRHI 221012Z 2210/2306 29006KT P6SM -SN OVC028
      TEMPO 2213/2215 SCT025
     FM221500 27005KT P6SM SCT020
     FM221700 24007KT P6SM BKN200
     FM222200 21007KT P6SM BKN070
     FM230300 20007KT 3SM -SN BKN035 OVC060 PROB30 2303/2306 5SM
      -FZRASN BKN020=

USA.gov is the U.S. government's official web portal to all federal, state and local government web resources and services.